createdAt,value
2023-02-25T00:01:16.842Z,24.1
2023-02-25T00:07:24.412Z,24.1
2023-02-25T00:13:16.096Z,23.5
2023-02-25T00:19:11.635Z,25.4
2023-02-25T00:25:13.808Z,27.1
2023-02-25T00:31:05.902Z,24.9
2023-02-25T00:36:59.670Z,25.4
2023-02-25T00:42:58.593Z,24.8
2023-02-25T00:48:36.055Z,24.6
2023-02-25T00:54:35.819Z,24
2023-02-25T01:00:28.832Z,23.9
2023-02-25T01:06:29.256Z,23.8
2023-02-25T01:12:24.496Z,26
2023-02-25T01:17:48.090Z,25.6
2023-02-25T01:23:25.092Z,24.6
2023-02-25T01:29:18.591Z,25.1
2023-02-25T01:35:13.807Z,24.5
2023-02-25T01:41:06.571Z,24.3
2023-02-25T01:46:59.854Z,24.1
2023-02-25T01:52:53.109Z,23.6
2023-02-25T01:58:46.450Z,24.4
2023-02-25T02:04:39.306Z,26.6
2023-02-25T02:10:33.363Z,24.8
2023-02-25T02:16:26.634Z,24.6
2023-02-25T02:22:19.801Z,24.8
2023-02-25T02:28:12.497Z,24.6
2023-02-25T02:33:50.116Z,24
2023-02-25T02:39:43.163Z,24.4
2023-02-25T02:45:20.661Z,26.4
2023-02-25T02:51:13.474Z,24.9
2023-02-25T02:56:51.198Z,24.3
2023-02-25T03:02:44.212Z,24.9
2023-02-25T03:08:22.475Z,24.4
2023-02-25T03:13:59.687Z,24.1
2023-02-25T03:19:22.066Z,23.9
2023-02-25T03:25:01.072Z,25.7
2023-02-25T03:30:37.776Z,27.1
2023-02-25T03:36:15.623Z,24.3
2023-02-25T03:41:52.964Z,25.1
2023-02-25T03:47:31.419Z,24.5
2023-02-25T03:52:53.593Z,24.3
2023-02-25T03:58:31.549Z,23.8
2023-02-25T04:04:25.031Z,24.8
2023-02-25T04:10:02.614Z,26.8
2023-02-25T04:15:39.319Z,24.6
2023-02-25T04:21:17.635Z,24.3
2023-02-25T04:26:55.349Z,24.8
2023-02-25T04:32:34.202Z,24.3
2023-02-25T04:38:28.396Z,24
2023-02-25T04:44:22.040Z,23.9
2023-02-25T04:50:16.142Z,25.9
2023-02-25T04:56:10.053Z,26.8
2023-02-25T05:02:02.602Z,24.3
2023-02-25T05:07:55.486Z,24.9
2023-02-25T05:13:51.150Z,24.4
2023-02-25T05:19:14.406Z,24.2
2023-02-25T05:25:07.469Z,23.6
2023-02-25T05:31:00.855Z,25.1
2023-02-25T05:36:40.488Z,27.1
2023-02-25T05:42:16.184Z,24.3
2023-02-25T05:48:09.688Z,24.8
2023-02-25T05:53:46.101Z,24.6
2023-02-25T05:59:23.127Z,24.4
2023-02-25T06:05:01.033Z,23.9
2023-02-25T06:10:38.848Z,24.2
2023-02-25T06:16:16.000Z,26.2
2023-02-25T06:21:54.186Z,25.5
2023-02-25T06:27:47.893Z,24.1
2023-02-25T06:33:26.810Z,24.9
2023-02-25T06:39:04.502Z,24.3
2023-02-25T06:44:58.035Z,24.1
2023-02-25T06:50:36.950Z,23.6
2023-02-25T06:56:13.655Z,25.3
2023-02-25T07:01:52.170Z,27.3
2023-02-25T07:07:46.655Z,24.1
2023-02-25T07:13:09.187Z,25
2023-02-25T07:18:31.800Z,24.5
2023-02-25T07:24:08.365Z,24.4
2023-02-25T07:30:01.256Z,23.8
2023-02-25T07:35:55.921Z,23.3
2023-02-25T07:41:48.686Z,22.7
2023-02-25T07:47:41.438Z,23.1
2023-02-25T07:53:34.557Z,25.6
2023-02-25T07:59:30.888Z,23.7
2023-02-25T08:05:24.934Z,23.4
2023-02-25T08:11:19.467Z,23.1
2023-02-25T08:17:12.442Z,22.8
2023-02-25T08:23:06.453Z,22.3
2023-02-25T08:28:59.821Z,23.1
2023-02-25T08:34:39.531Z,25.6
2023-02-25T08:40:35.514Z,23.5
2023-02-25T08:46:28.209Z,23.4
2023-02-25T08:52:21.080Z,23.1
2023-02-25T08:58:14.334Z,22.7
2023-02-25T09:04:06.726Z,22.3
2023-02-25T09:10:02.774Z,22.7
2023-02-25T09:15:53.706Z,25.4
2023-02-25T09:21:46.843Z,23.4
2023-02-25T09:27:39.002Z,23.3
2023-02-25T09:33:32.680Z,23
2023-02-25T09:39:26.172Z,22.6
2023-02-25T09:45:18.334Z,22.3
2023-02-25T09:50:59.379Z,21.9
2023-02-25T09:56:37.012Z,24.7
2023-02-25T10:02:14.946Z,23.4
2023-02-25T10:07:52.936Z,23.3
2023-02-25T10:13:30.393Z,23
2023-02-25T10:18:57.424Z,22.7
2023-02-25T10:24:49.736Z,22.3
2023-02-25T10:30:26.373Z,21.9
2023-02-25T10:36:20.064Z,24.4
2023-02-25T10:42:13.017Z,23.6
2023-02-25T10:48:06.252Z,23.3
2023-02-25T10:54:05.006Z,23.1
2023-02-25T10:59:58.279Z,22.7
2023-02-25T11:05:52.323Z,22.3
2023-02-25T11:11:46.604Z,23.1
2023-02-25T11:17:58.571Z,25.7
2023-02-25T11:23:51.953Z,23.4
2023-02-25T11:29:43.400Z,23.2
2023-02-25T11:35:41.004Z,22.8
2023-02-25T11:41:37.410Z,22.5
2023-02-25T11:47:30.469Z,22.1
2023-02-25T11:53:22.914Z,24.2
2023-02-25T11:58:45.441Z,23.7
2023-02-25T12:04:37.826Z,23.2
2023-02-25T12:10:45.437Z,23
2023-02-25T12:16:22.723Z,22.7
2023-02-25T12:22:15.385Z,22.3
2023-02-25T12:28:08.556Z,22
2023-02-25T12:34:01.132Z,25
2023-02-25T12:39:56.811Z,23.5
2023-02-25T12:45:50.901Z,23.2
2023-02-25T12:51:44.247Z,22.9
2023-02-25T12:57:22.454Z,22.6
2023-02-25T13:03:16.936Z,22.3
2023-02-25T13:09:10.128Z,23.6
2023-02-25T13:15:28.471Z,24.1
2023-02-25T13:21:22.272Z,23.2
2023-02-25T13:27:14.824Z,23
2023-02-25T13:33:08.855Z,22.7
2023-02-25T13:38:47.238Z,22.4
2023-02-25T13:44:39.260Z,22.1
2023-02-25T13:50:32.014Z,21.7
2023-02-25T13:56:27.807Z,21.3
2023-02-25T14:02:20.391Z,21
2023-02-25T14:08:12.670Z,20.7
2023-02-25T14:14:10.175Z,20.4
2023-02-25T14:20:03.675Z,20.1
2023-02-25T14:25:41.472Z,19.8
2023-02-25T14:31:20.191Z,19.5
2023-02-25T14:37:13.217Z,19.3
2023-02-25T14:43:06.402Z,19
2023-02-25T14:48:59.359Z,18.8
2023-02-25T14:54:52.187Z,18.6
2023-02-25T15:00:44.415Z,18.4
2023-02-25T15:06:40.038Z,18.1
2023-02-25T15:12:33.376Z,18
2023-02-25T15:18:26.152Z,17.9
2023-02-25T15:24:04.834Z,17.8
2023-02-25T15:29:57.088Z,17.6
2023-02-25T15:35:51.807Z,17.5
2023-02-25T15:41:44.372Z,17.4
2023-02-25T15:47:39.909Z,17.4
2023-02-25T15:53:01.527Z,17.4
2023-02-25T15:58:40.197Z,17.5
2023-02-25T16:04:38.266Z,17.5
2023-02-25T16:10:30.456Z,17.5
2023-02-25T16:16:23.149Z,17.6
2023-02-25T16:22:17.772Z,17.6
2023-02-25T16:28:09.764Z,17.6
2023-02-25T16:34:04.085Z,17.7
2023-02-25T16:39:46.380Z,17.7
2023-02-25T16:45:46.843Z,17.8
2023-02-25T16:51:41.293Z,17.8
2023-02-25T16:57:34.568Z,17.8
2023-02-25T17:03:11.669Z,17.8
2023-02-25T17:09:05.254Z,17.8
2023-02-25T17:14:57.996Z,17.8
2023-02-25T17:20:36.035Z,17.7
2023-02-25T17:26:30.934Z,17.7
2023-02-25T17:32:25.346Z,17.7
2023-02-25T17:38:19.097Z,17.7
2023-02-25T17:44:14.989Z,17.7
2023-02-25T17:50:09.256Z,17.8
2023-02-25T17:56:03.056Z,17.8
2023-02-25T18:01:59.171Z,17.9
2023-02-25T18:07:53.791Z,17.9
2023-02-25T18:13:47.849Z,18
2023-02-25T18:19:52.138Z,18.1
2023-02-25T18:25:46.318Z,18.4
2023-02-25T18:31:40.636Z,18.8
2023-02-25T18:37:21.368Z,19.1
2023-02-25T18:43:15.970Z,19.6
2023-02-25T18:49:10.289Z,20.1
2023-02-25T18:55:05.040Z,20.7
2023-02-25T19:06:36.384Z,21.5
2023-02-25T19:12:30.394Z,21.7
2023-02-25T19:18:25.109Z,21.7
2023-02-25T19:24:17.797Z,21.8
2023-02-25T19:30:10.783Z,22.1
2023-02-25T19:35:51.108Z,22.4
2023-02-25T19:41:44.081Z,22.6
2023-02-25T19:47:38.244Z,22.7
2023-02-25T19:53:32.271Z,22.6
2023-02-25T19:59:26.248Z,22.6
2023-02-25T20:05:19.937Z,22.3
2023-02-25T20:11:15.150Z,22.1
2023-02-25T20:17:08.255Z,21.9
2023-02-25T20:23:03.351Z,21.6
2023-02-25T20:28:59.393Z,21.4
2023-02-25T20:40:34.113Z,20.9
2023-02-25T20:46:30.159Z,20.7
2023-02-25T20:52:22.958Z,20.4
2023-02-25T20:58:16.256Z,20.3
2023-02-25T21:04:09.856Z,20.1
2023-02-25T21:10:04.382Z,26.9
2023-02-25T21:15:59.124Z,28.7
2023-02-25T21:21:52.416Z,28.4
2023-02-25T21:27:46.292Z,27.9
2023-02-25T21:33:42.389Z,27.1
2023-02-25T21:39:35.248Z,26.4
2023-02-25T21:45:27.864Z,25.8
2023-02-25T21:51:21.084Z,25.3
2023-02-25T21:57:14.168Z,24.6
2023-02-25T22:03:06.967Z,24.1
2023-02-25T22:09:00.813Z,25
2023-02-25T22:14:53.739Z,26.7
2023-02-25T22:20:46.403Z,26.2
2023-02-25T22:26:41.597Z,25.8
2023-02-25T22:32:35.558Z,25.3
2023-02-25T22:38:12.434Z,24.8
2023-02-25T22:44:05.277Z,24.3
2023-02-25T22:49:42.976Z,23.8
2023-02-25T22:55:34.177Z,23.3
2023-02-25T23:01:26.793Z,26.8
2023-02-25T23:07:33.474Z,25.7
2023-02-25T23:13:27.612Z,25.4
2023-02-25T23:19:20.962Z,25.1
2023-02-25T23:25:13.382Z,24.6
2023-02-25T23:31:05.545Z,24.2
2023-02-25T23:36:59.926Z,23.7
2023-02-25T23:42:53.720Z,25.3
2023-02-25T23:48:50.007Z,25.6
2023-02-25T23:54:43.536Z,25.1
